Time;durP1;ratioP1;P1;durP2;ratioP2;P2;SDS_P1;SDS_P2;PMS_P1;PMS_P2;Temp;Humidity;BMP_temperature;BMP_pressure;BME280_temperature;BME280_humidity;BME280_pressure;Samples;Min_cycle;Max_cycle;Signal;HPM_P1;HPM_P2
2021/11/25 00:01:44;;;;;;;2.25;2.08;;;;;;;0.51;88.17;98453.88;4946898;29;20027;-66
2021/11/25 00:04:09;;;;;;;6.63;3.13;;;;;;;0.48;87.87;98452.16;4954696;29;20045;-66
2021/11/25 00:06:35;;;;;;;1.73;1.70;;;;;;;0.52;87.85;98455.59;4954399;29;20028;-66
2021/11/25 00:09:00;;;;;;;2.17;2.05;;;;;;;0.51;88.05;98451.34;4952971;28;20458;-66
2021/11/25 00:11:25;;;;;;;3.80;2.05;;;;;;;0.59;87.72;98447.22;4941212;29;20029;-67
2021/11/25 00:13:51;;;;;;;1.98;1.90;;;;;;;0.54;87.28;98438.66;4935395;29;20066;-68
2021/11/25 00:16:17;;;;;;;2.35;1.35;;;;;;;0.59;87.61;98439.59;4934495;29;20159;-68
2021/11/25 00:18:42;;;;;;;2.38;1.77;;;;;;;0.56;87.78;98444.63;4935205;29;20034;-68
2021/11/25 00:21:09;;;;;;;1.70;1.58;;;;;;;0.64;87.79;98432.88;4934991;29;20040;-68
2021/11/25 00:23:35;;;;;;;3.17;2.65;;;;;;;0.60;87.54;98428.56;4935198;29;20397;-68
2021/11/25 00:26:00;;;;;;;2.50;2.30;;;;;;;0.55;87.48;98430.16;4935189;29;20039;-68
2021/11/25 00:28:25;;;;;;;1.80;1.65;;;;;;;0.56;87.76;98429.31;4935470;29;20486;-68
2021/11/25 00:30:51;;;;;;;2.72;2.53;;;;;;;0.56;88.14;98424.22;4943596;29;20039;-68
2021/11/25 00:33:16;;;;;;;3.00;1.73;;;;;;;0.59;87.97;98428.53;4954054;29;20077;-68
2021/11/25 00:35:41;;;;;;;8.05;2.83;;;;;;;0.53;87.80;98424.16;4954040;29;20031;-68
2021/11/25 00:38:07;;;;;;;2.35;2.15;;;;;;;0.56;87.95;98414.03;4954206;28;20027;-66
2021/11/25 00:40:32;;;;;;;2.83;2.42;;;;;;;0.59;88.09;98409.00;4947260;28;20031;-66
2021/11/25 00:42:58;;;;;;;2.30;2.20;;;;;;;0.58;87.94;98411.50;4952406;29;20114;-67
2021/11/25 00:45:23;;;;;;;6.05;4.78;;;;;;;0.55;87.83;98407.22;4953978;29;20028;-67
2021/11/25 00:47:49;;;;;;;3.47;1.83;;;;;;;0.53;88.49;98403.78;4954386;28;20034;-67
2021/11/25 00:50:17;;;;;;;1.63;1.52;;;;;;;0.53;88.34;98411.44;4953771;28;20110;-66
2021/11/25 00:52:42;;;;;;;0.90;0.90;;;;;;;0.54;88.36;98405.53;4950061;28;20071;-66
2021/11/25 00:55:08;;;;;;;2.78;2.67;;;;;;;0.55;88.54;98407.22;4941315;29;20027;-66
2021/11/25 00:57:34;;;;;;;2.97;2.42;;;;;;;0.54;88.11;98405.53;4934525;29;20462;-66
2021/11/25 00:59:59;;;;;;;3.30;2.70;;;;;;;0.57;88.50;98400.44;4941088;29;20089;-66
2021/11/25 05:16:17;;;;;;;4.68;1.70;;;;;;;0.80;90.11;98235.06;5450629;23;20044;-67
2021/11/25 05:18:42;;;;;;;1.55;1.45;;;;;;;0.63;90.23;98237.44;4953830;28;20035;-67
2021/11/25 05:21:07;;;;;;;2.28;2.15;;;;;;;0.66;90.44;98232.34;4953744;28;20028;-67
2021/11/25 05:23:33;;;;;;;3.47;3.22;;;;;;;0.63;90.57;98227.22;4953754;28;20035;-69
2021/11/25 05:25:58;;;;;;;3.40;3.05;;;;;;;0.65;91.14;98220.44;4953748;28;20046;-64
2021/11/25 05:28:23;;;;;;;1.88;1.67;;;;;;;0.69;90.98;98222.19;4953676;28;20031;-65
2021/11/25 05:30:48;;;;;;;3.28;3.03;;;;;;;0.71;90.78;98215.41;4962355;28;20082;-68
2021/11/25 05:33:16;;;;;;;3.55;3.15;;;;;;;0.73;90.43;98212.91;4972913;28;20109;-68
2021/11/25 05:35:42;;;;;;;4.80;3.28;;;;;;;0.81;90.14;98215.53;4972918;28;20480;-68
2021/11/25 05:38:07;;;;;;;2.30;2.13;;;;;;;0.96;91.08;98225.88;4972733;28;20031;-68
2021/11/25 05:40:32;;;;;;;2.15;1.98;;;;;;;0.80;89.97;98224.00;4972735;28;20101;-68
2021/11/25 05:42:58;;;;;;;5.50;2.50;;;;;;;0.77;89.86;98235.91;4972806;28;20611;-66
2021/11/25 05:45:23;;;;;;;2.70;2.45;;;;;;;0.84;90.04;98230.88;4972666;28;20034;-68
2021/11/25 05:47:49;;;;;;;2.28;1.73;;;;;;;0.91;90.26;98230.94;4972900;28;20058;-68
2021/11/25 05:50:19;;;;;;;2.05;1.95;;;;;;;0.91;89.90;98222.44;4972732;28;20050;-68
2021/11/25 05:52:49;;;;;;;;;;;;;;;1.03;91.20;98230.22;4973398;28;20496;-68
2021/11/25 05:55:14;;;;;;;4.93;3.70;;;;;;;0.98;89.30;98229.34;4972698;28;20219;-68
2021/11/25 05:57:40;;;;;;;3.20;2.13;;;;;;;0.98;89.26;98230.19;4972665;28;20066;-68
2021/11/25 06:00:10;;;;;;;4.93;2.80;;;;;;;1.03;89.42;98237.88;4969496;28;20027;-68
2021/11/25 06:02:36;;;;;;;3.13;2.92;;;;;;;1.12;90.16;98227.78;4968122;28;20031;-68
2021/11/25 06:05:01;;;;;;;5.28;4.72;;;;;;;1.09;89.95;98227.75;4972891;28;20033;-67
2021/11/25 06:07:26;;;;;;;2.97;2.63;;;;;;;1.14;89.95;98226.09;4972736;28;20082;-67
2021/11/25 06:09:52;;;;;;;2.92;2.72;;;;;;;1.14;89.25;98230.34;4972468;28;20022;-67
2021/11/25 06:12:17;;;;;;;2.75;2.35;;;;;;;1.08;88.67;98231.13;4972582;28;20111;-67
2021/11/25 06:14:42;;;;;;;4.15;2.40;;;;;;;1.19;88.04;98237.19;4973790;28;20106;-67
2021/11/25 06:17:08;;;;;;;13.38;4.88;;;;;;;1.45;84.87;98226.38;4976243;28;20245;-68
2021/11/25 06:19:33;;;;;;;4.50;2.80;;;;;;;1.43;84.39;98222.97;4975901;28;20038;-68
2021/11/25 06:21:59;;;;;;;5.65;5.13;;;;;;;1.40;84.49;98225.50;4976020;28;20114;-68
2021/11/25 06:24:24;;;;;;;5.35;4.18;;;;;;;1.32;85.44;98224.59;4976022;28;20472;-68
2021/11/25 06:26:50;;;;;;;2.67;2.58;;;;;;;1.41;86.99;98234.88;4975672;28;20403;-68
2021/11/25 06:29:17;;;;;;;2.65;2.45;;;;;;;1.33;86.66;98231.38;4975272;28;20384;-68
2021/11/25 06:31:42;;;;;;;1.83;1.70;;;;;;;1.47;87.71;98235.78;4967730;28;20101;-68
2021/11/25 06:34:08;;;;;;;5.28;4.65;;;;;;;1.39;86.80;98241.66;4975857;28;20547;-68
2021/11/25 06:36:33;;;;;;;7.57;3.08;;;;;;;1.34;85.90;98238.19;4975642;28;20019;-68
2021/11/25 06:38:59;;;;;;;1.95;1.85;;;;;;;1.35;86.12;98245.00;4975666;28;20495;-68
2021/11/25 06:41:24;;;;;;;3.92;3.63;;;;;;;1.29;86.52;98241.56;4975458;28;20499;-68
2021/11/25 06:43:49;;;;;;;3.65;3.40;;;;;;;1.28;86.11;98239.84;4975719;28;20426;-68
2021/11/25 06:46:15;;;;;;;3.75;3.45;;;;;;;1.42;86.48;98231.47;4975391;28;20111;-68
2021/11/25 06:48:40;;;;;;;2.45;2.25;;;;;;;1.37;86.87;98228.03;4974296;28;20034;-68
2021/11/25 06:51:05;;;;;;;7.63;4.50;;;;;;;1.40;86.51;98233.16;4975451;28;20041;-68
2021/11/25 06:53:31;;;;;;;3.63;3.33;;;;;;;1.39;86.32;98231.44;4975495;28;20030;-68
2021/11/25 06:55:56;;;;;;;3.30;2.75;;;;;;;1.39;86.47;98246.75;4975252;28;20069;-68
2021/11/25 06:58:22;;;;;;;2.90;2.70;;;;;;;1.38;85.63;98237.38;4975334;28;20061;-68
2021/11/25 07:00:48;;;;;;;3.28;3.03;;;;;;;1.41;85.73;98242.53;4966456;28;20035;-68
2021/11/25 07:03:13;;;;;;;3.78;3.50;;;;;;;1.25;86.46;98242.34;4975228;28;20027;-68
2021/11/25 07:05:38;;;;;;;2.80;2.60;;;;;;;1.52;88.79;98246.03;4975178;28;20042;-68
2021/11/25 07:08:04;;;;;;;4.60;4.15;;;;;;;1.40;86.27;98251.00;4975251;28;20105;-68
2021/11/25 07:10:31;;;;;;;5.68;2.78;;;;;;;1.43;86.21;98244.25;4974899;28;20534;-68
2021/11/25 07:12:56;;;;;;;3.90;3.42;;;;;;;1.27;86.47;98247.50;4975310;28;20039;-68
2021/11/25 07:15:24;;;;;;;8.05;3.95;;;;;;;1.19;86.99;98244.84;4974975;28;20376;-68
2021/11/25 07:17:50;;;;;;;2.63;2.42;;;;;;;1.33;87.34;98250.09;4973804;28;20373;-68
2021/11/25 07:20:16;;;;;;;4.50;2.92;;;;;;;1.41;86.75;98250.19;4974889;28;20107;-68
2021/11/25 07:22:41;;;;;;;8.13;3.60;;;;;;;1.51;87.23;98241.78;4974948;28;20027;-68
2021/11/25 07:25:09;;;;;;;5.15;4.00;;;;;;;1.47;87.07;98230.69;4974463;28;20027;-68
2021/11/25 07:27:36;;;;;;;5.38;2.95;;;;;;;1.50;86.71;98234.97;4974948;28;20027;-68
2021/11/25 07:30:01;;;;;;;2.40;2.25;;;;;;;1.51;86.68;98247.75;4972028;28;20058;-68
2021/11/25 07:32:26;;;;;;;2.65;1.80;;;;;;;1.54;86.80;98246.88;4969176;28;20105;-70
2021/11/25 07:34:53;;;;;;;4.40;2.38;;;;;;;1.50;86.47;98265.59;4974701;28;20530;-69
2021/11/25 07:37:18;;;;;;;3.35;3.15;;;;;;;1.57;86.87;98267.34;4974573;28;20483;-69
2021/11/25 07:39:44;;;;;;;3.20;2.80;;;;;;;1.52;85.82;98264.75;4974288;28;20065;-67
2021/11/25 07:42:09;;;;;;;3.15;2.60;;;;;;;1.56;85.68;98267.34;4974630;28;20476;-67
2021/11/25 07:44:34;;;;;;;4.97;2.85;;;;;;;1.57;85.24;98272.47;4974462;28;20069;-67
2021/11/25 07:47:00;;;;;;;4.50;3.78;;;;;;;1.60;85.08;98261.44;4974519;28;20549;-67
2021/11/25 07:49:26;;;;;;;4.20;3.90;;;;;;;1.65;85.85;98265.75;4974231;28;20027;-67
2021/11/25 07:51:51;;;;;;;8.23;3.47;;;;;;;1.78;87.24;98262.44;4974443;28;20022;-67
2021/11/25 07:54:17;;;;;;;3.08;2.88;;;;;;;1.80;85.89;98255.66;4974194;28;20050;-67
2021/11/25 07:56:42;;;;;;;3.55;3.35;;;;;;;1.68;84.40;98247.03;4974455;28;20388;-67
2021/11/25 07:59:07;;;;;;;4.20;3.85;;;;;;;1.63;84.92;98244.44;4973540;28;20472;-67
2021/11/25 08:01:33;;;;;;;2.75;2.50;;;;;;;1.59;84.46;98240.13;4966121;28;20661;-67
2021/11/25 08:03:59;;;;;;;3.97;3.67;;;;;;;1.43;84.37;98243.41;4974145;28;20447;-66
2021/11/25 08:06:24;;;;;;;2.78;2.33;;;;;;;1.60;84.78;98241.00;4973969;28;20027;-66
2021/11/25 08:08:50;;;;;;;2.50;2.40;;;;;;;1.52;84.34;98248.59;4973958;28;20042;-66
2021/11/25 08:11:15;;;;;;;1.67;1.58;;;;;;;1.64;84.24;98242.72;4973837;28;20025;-66
2021/11/25 08:13:40;;;;;;;7.20;3.40;;;;;;;1.49;84.33;98248.53;4974011;28;20022;-66
2021/11/25 08:16:06;;;;;;;3.53;3.22;;;;;;;1.42;84.68;98237.44;4973774;28;20033;-66
2021/11/25 08:18:31;;;;;;;6.70;3.97;;;;;;;1.51;84.44;98236.69;4973939;28;20495;-68
2021/11/25 08:20:57;;;;;;;2.53;2.33;;;;;;;1.43;84.66;98239.13;4973696;28;20026;-69
2021/11/25 08:23:22;;;;;;;9.00;4.57;;;;;;;1.35;84.10;98237.34;4973773;28;20440;-69
2021/11/25 08:25:49;;;;;;;4.72;4.32;;;;;;;1.40;83.92;98228.94;4973754;28;20023;-69
2021/11/25 08:28:15;;;;;;;3.35;2.97;;;;;;;1.46;83.44;98228.13;4973801;28;20033;-69
2021/11/25 08:30:40;;;;;;;4.03;2.88;;;;;;;1.71;84.02;98230.03;4965663;28;20034;-70
2021/11/25 08:33:05;;;;;;;5.65;3.45;;;;;;;1.76;82.15;98220.72;4972998;28;20476;-69
2021/11/25 08:35:31;;;;;;;4.70;3.55;;;;;;;1.80;83.08;98217.34;4973505;28;20021;-69
2021/11/25 08:37:59;;;;;;;12.73;3.00;;;;;;;1.95;82.84;98213.19;4973038;28;20030;-69
2021/11/25 08:40:25;;;;;;;4.00;3.65;;;;;;;1.78;81.94;98221.56;4973384;28;20189;-69
2021/11/25 08:42:51;;;;;;;5.45;3.20;;;;;;;2.07;82.41;98218.38;4973633;28;20461;-69
2021/11/25 08:45:17;;;;;;;2.90;2.67;;;;;;;1.99;81.49;98217.47;4973509;28;20042;-69
2021/11/25 08:47:44;;;;;;;4.38;3.25;;;;;;;2.24;83.11;98221.91;4973337;28;20030;-69
2021/11/25 08:50:12;;;;;;;2.97;2.78;;;;;;;1.97;81.11;98231.94;4973292;28;20498;-70
2021/11/25 08:52:37;;;;;;;4.70;4.25;;;;;;;1.97;81.64;98234.47;4973214;28;20052;-69
2021/11/25 08:55:03;;;;;;;4.95;3.28;;;;;;;2.21;80.71;98226.97;4973583;28;20102;-69
2021/11/25 08:57:29;;;;;;;3.67;3.38;;;;;;;2.01;81.42;98223.44;4973137;28;20110;-69
2021/11/25 08:59:54;;;;;;;3.95;2.67;;;;;;;1.97;80.92;98221.72;4971442;28;20110;-69
2021/11/25 09:02:19;;;;;;;7.55;2.58;;;;;;;2.01;81.55;98221.75;4966487;28;20033;-69
2021/11/25 09:04:45;;;;;;;9.80;4.97;;;;;;;2.08;82.40;98225.22;4973317;28;20061;-69
2021/11/25 09:07:11;;;;;;;4.75;3.28;;;;;;;1.90;82.07;98241.25;4972989;28;20476;-69
2021/11/25 09:09:37;;;;;;;4.18;3.78;;;;;;;2.18;82.63;98216.75;4972982;28;20484;-69
2021/11/25 09:12:02;;;;;;;3.45;2.03;;;;;;;2.14;81.15;98221.84;4973140;28;20042;-69
2021/11/25 09:14:28;;;;;;;2.13;1.95;;;;;;;2.15;81.01;98226.09;4973156;28;20023;-70
2021/11/25 09:16:53;;;;;;;7.63;3.45;;;;;;;1.99;80.20;98226.00;4973040;28;20038;-69
2021/11/25 09:19:18;;;;;;;7.28;3.58;;;;;;;2.18;80.72;98226.97;4972999;28;20034;-69
2021/11/25 09:21:45;;;;;;;4.50;3.03;;;;;;;2.17;80.20;98225.25;4973016;28;20026;-69
2021/11/25 09:24:10;;;;;;;2.95;2.75;;;;;;;2.19;79.13;98223.56;4973196;28;20023;-69
2021/11/25 09:26:37;;;;;;;3.83;3.08;;;;;;;2.11;79.14;98232.03;4972936;28;20495;-69
2021/11/25 09:29:03;;;;;;;5.57;3.65;;;;;;;1.99;79.55;98230.25;4972182;28;20027;-69
2021/11/25 09:31:31;;;;;;;4.40;4.03;;;;;;;2.08;80.08;98225.22;4964891;28;20042;-66
2021/11/25 09:33:58;;;;;;;3.10;2.58;;;;;;;1.98;81.65;98239.63;4972952;28;20031;-66
2021/11/25 09:36:25;;;;;;;4.05;2.38;;;;;;;1.91;80.25;98237.00;4972881;28;20057;-65
2021/11/25 09:38:52;;;;;;;3.75;3.22;;;;;;;1.98;79.56;98233.63;4972993;28;20447;-65
2021/11/25 09:41:17;;;;;;;1.73;1.60;;;;;;;1.87;79.64;98240.38;4972948;28;20031;-65
2021/11/25 09:43:43;;;;;;;3.40;2.78;;;;;;;2.09;81.19;98237.13;4972951;28;20099;-65
2021/11/25 09:46:10;;;;;;;4.00;2.75;;;;;;;2.10;79.21;98238.84;4972775;28;20038;-65
2021/11/25 09:48:38;;;;;;;2.78;2.45;;;;;;;1.82;80.41;98236.94;4972821;28;20109;-65
2021/11/25 09:51:05;;;;;;;5.20;3.03;;;;;;;1.87;79.65;98245.47;4975890;28;20042;-65
2021/11/25 09:53:32;;;;;;;2.67;2.53;;;;;;;1.82;79.76;98237.78;4976464;28;20034;-65
2021/11/25 09:55:59;;;;;;;3.33;3.08;;;;;;;1.80;80.15;98240.31;4976521;28;20034;-65
2021/11/25 09:58:28;;;;;;;4.35;4.10;;;;;;;1.87;78.90;98235.25;4976643;28;20023;-65
2021/11/25 10:00:57;;;;;;;2.33;2.13;;;;;;;2.13;78.27;98240.53;4974458;28;20023;-65
2021/11/25 10:03:23;;;;;;;3.17;2.85;;;;;;;2.12;77.61;98247.34;4957066;29;20489;-65
2021/11/25 10:05:55;;;;;;;4.47;4.07;;;;;;;2.27;76.94;98236.38;4956887;28;20033;-65
2021/11/25 10:08:28;;;;;;;3.92;2.80;;;;;;;2.29;76.40;98233.00;4956958;29;20027;-66
2021/11/25 10:11:08;;;;;;;3.60;3.30;;;;;;;2.24;76.23;98232.13;4956748;29;20564;-66
2021/11/25 10:13:55;;;;;;;5.13;2.97;;;;;;;2.45;76.83;98230.53;4956948;29;20027;-66
2021/11/25 10:16:35;;;;;;;2.75;2.55;;;;;;;2.65;75.48;98228.91;4956749;28;20381;-66
2021/11/25 10:19:12;;;;;;;4.00;2.30;;;;;;;2.70;75.68;98222.13;4956822;29;20043;-66
2021/11/25 10:21:43;;;;;;;2.67;2.28;;;;;;;2.93;76.20;98223.91;4956639;29;20146;-66
2021/11/25 10:24:10;;;;;;;6.07;2.92;;;;;;;2.78;75.31;98215.34;4956679;29;20042;-66
2021/11/25 10:26:35;;;;;;;2.22;1.90;;;;;;;3.04;76.60;98220.53;4956660;28;20039;-66
2021/11/25 10:29:08;;;;;;;3.17;2.97;;;;;;;3.37;73.99;98218.06;4958419;28;20388;-66
2021/11/25 10:31:42;;;;;;;2.53;2.38;;;;;;;3.07;72.61;98219.69;4967719;28;20555;-66
2021/11/25 10:34:19;;;;;;;4.57;4.20;;;;;;;3.26;73.83;98216.34;4975931;28;20495;-67
2021/11/25 10:37:17;;;;;;;3.53;2.45;;;;;;;3.17;73.09;98211.19;4975546;28;20030;-66
2021/11/25 10:42:17;;;;;;;4.22;3.92;;;;;;;3.26;74.48;98203.53;4975905;28;20204;-66
2021/11/25 10:44:50;;;;;;;2.78;2.67;;;;;;;3.37;72.99;98210.38;4975608;28;20050;-66
2021/11/25 10:47:18;;;;;;;2.80;2.63;;;;;;;2.96;73.70;98209.44;4975335;28;20067;-66
2021/11/25 10:49:47;;;;;;;3.58;3.28;;;;;;;2.97;73.69;98200.06;4975443;28;20022;-66
2021/11/25 10:52:26;;;;;;;3.58;3.25;;;;;;;3.03;73.46;98200.91;4975510;28;20022;-66
2021/11/25 10:55:08;;;;;;;4.05;3.22;;;;;;;3.07;73.25;98196.66;4975518;28;20506;-66
2021/11/25 10:57:41;;;;;;;5.70;2.53;;;;;;;3.05;73.54;98199.22;4975271;28;20066;-66
2021/11/25 11:00:09;;;;;;;3.97;2.60;;;;;;;3.03;74.44;98197.50;4971478;28;20042;-66
2021/11/25 11:02:34;;;;;;;3.95;2.83;;;;;;;3.03;73.10;98200.06;4970268;28;20027;-66
2021/11/25 11:05:04;;;;;;;6.45;3.92;;;;;;;3.15;72.98;98200.09;4975407;28;20023;-66
2021/11/25 11:07:31;;;;;;;;;;;;;;;3.04;72.62;98197.50;4975516;28;20045;-66
2021/11/25 11:09:57;;;;;;;2.22;2.13;;;;;;;2.61;73.65;98196.53;4974905;28;20009;-69
2021/11/25 11:15:13;;;;;;;3.72;3.42;;;;;;;2.90;75.13;98198.31;4975047;28;20022;-69
2021/11/25 11:20:27;;;;;;;2.95;2.75;;;;;;;3.02;73.09;98193.25;4974997;28;20448;-69
2021/11/25 11:23:02;;;;;;;1.83;1.73;;;;;;;2.82;74.22;98191.47;4975023;28;20027;-69
2021/11/25 11:25:33;;;;;;;2.38;2.17;;;;;;;2.48;74.23;98194.75;4974679;28;20122;-69
2021/11/25 11:27:59;;;;;;;4.03;2.90;;;;;;;2.73;73.94;98188.88;4974813;28;20025;-69
2021/11/25 11:30:25;;;;;;;7.13;4.32;;;;;;;2.74;73.87;98180.38;4969238;28;20030;-70
2021/11/25 11:32:52;;;;;;;2.75;2.63;;;;;;;2.31;75.19;98177.63;4971736;28;20034;-67
2021/11/25 11:35:22;;;;;;;1.92;1.58;;;;;;;2.47;76.01;98177.72;4974466;28;20035;-67
2021/11/25 11:37:49;;;;;;;3.53;2.92;;;;;;;2.78;75.76;98169.28;4974710;28;20023;-65
2021/11/25 11:40:14;;;;;;;3.90;2.70;;;;;;;2.13;76.34;98169.88;4974443;28;20041;-65
2021/11/25 11:42:41;;;;;;;4.78;3.97;;;;;;;2.49;76.57;98161.53;4974543;28;20034;-65
2021/11/25 11:45:07;;;;;;;3.45;2.92;;;;;;;2.77;75.22;98167.59;4974393;28;20027;-65
2021/11/25 11:47:33;;;;;;;3.55;3.00;;;;;;;2.82;74.25;98145.44;4974422;28;20027;-65
2021/11/25 11:50:09;;;;;;;4.80;3.03;;;;;;;2.44;75.89;98158.09;4974257;28;20019;-65
2021/11/25 11:52:36;;;;;;;5.35;3.08;;;;;;;3.16;73.74;98148.06;4974310;28;20029;-65
2021/11/25 11:55:03;;;;;;;6.70;4.05;;;;;;;3.02;73.50;98142.06;4974192;28;20551;-65
2021/11/25 11:57:31;;;;;;;15.90;6.05;;;;;;;3.19;73.31;98135.28;4974286;28;20027;-65
2021/11/25 12:00:00;;;;;;;4.68;3.85;;;;;;;3.27;76.26;98148.91;4971734;28;20030;-65
2021/11/25 12:02:38;;;;;;;6.38;3.83;;;;;;;3.15;72.83;98148.06;4968023;28;20030;-65
2021/11/25 12:05:03;;;;;;;8.13;6.82;;;;;;;3.44;76.01;98141.25;4974016;28;20408;-65
2021/11/25 12:07:30;;;;;;;5.47;3.65;;;;;;;3.52;72.65;98138.69;4974073;28;20555;-65
2021/11/25 12:09:56;;;;;;;4.40;4.05;;;;;;;3.26;73.59;98136.97;4973885;28;20098;-67
2021/11/25 12:12:21;;;;;;;4.55;2.38;;;;;;;3.31;73.03;98135.28;4973196;28;20400;-67
2021/11/25 12:14:52;;;;;;;2.25;2.03;;;;;;;3.31;73.62;98134.41;4973817;28;20027;-66
2021/11/25 12:17:27;;;;;;;6.85;3.35;;;;;;;3.69;73.55;98131.84;4973770;28;20030;-65
2021/11/25 12:19:53;;;;;;;3.75;3.45;;;;;;;2.72;74.70;98136.03;4973669;28;20058;-65
2021/11/25 12:22:20;;;;;;;2.45;2.28;;;;;;;2.51;76.40;98133.41;4973835;28;20492;-65
2021/11/25 12:24:59;;;;;;;6.50;3.55;;;;;;;2.99;75.26;98130.09;4973945;28;20388;-65
2021/11/25 12:30:06;;;;;;;4.70;3.55;;;;;;;3.29;72.95;98125.91;4971790;28;20538;-65
2021/11/25 12:32:51;;;;;;;5.10;3.97;;;;;;;3.29;72.98;98126.75;4968379;28;20058;-65
2021/11/25 12:37:42;;;;;;;6.68;4.10;;;;;;;3.10;73.35;98125.03;4973795;28;20121;-65
2021/11/25 12:40:22;;;;;;;6.00;3.17;;;;;;;3.28;72.86;98119.91;4973264;28;20101;-65
2021/11/25 12:42:49;;;;;;;7.63;5.15;;;;;;;2.95;73.16;98119.88;4973490;28;20416;-65
2021/11/25 12:45:22;;;;;;;6.15;4.20;;;;;;;2.90;74.35;98119.00;4973374;28;20395;-65
2021/11/25 12:47:48;;;;;;;4.05;2.88;;;;;;;2.81;75.05;98118.16;4973460;28;20093;-65
2021/11/25 12:50:21;;;;;;;11.38;3.78;;;;;;;3.04;73.21;98114.75;4973242;28;20026;-65
2021/11/25 12:52:46;;;;;;;4.95;3.25;;;;;;;3.00;74.02;98110.53;4936767;28;20031;-66
2021/11/25 12:55:15;;;;;;;6.38;3.13;;;;;;;3.00;75.53;98113.06;4948395;28;20134;-66
2021/11/25 12:57:55;;;;;;;7.35;5.68;;;;;;;2.74;75.65;98115.56;4973347;28;20031;-66
2021/11/25 13:00:27;;;;;;;3.78;2.85;;;;;;;2.52;76.29;98114.69;4967634;28;20022;-66
2021/11/25 13:03:06;;;;;;;4.05;3.67;;;;;;;2.79;75.82;98112.16;4970424;28;20119;-66
2021/11/25 13:05:32;;;;;;;4.88;3.58;;;;;;;2.69;74.93;98113.00;4972989;28;20513;-66
2021/11/25 13:08:00;;;;;;;3.03;2.58;;;;;;;2.52;75.56;98107.00;4973036;28;20030;-66
2021/11/25 13:10:32;;;;;;;4.03;3.38;;;;;;;3.01;75.03;98104.53;4973048;28;20023;-66
2021/11/25 13:13:18;;;;;;;6.57;4.85;;;;;;;2.94;74.53;98105.38;4972973;28;20069;-66
2021/11/25 13:16:14;;;;;;;8.93;4.32;;;;;;;3.04;75.25;98095.13;4972959;28;20035;-66
2021/11/25 13:18:48;;;;;;;6.63;5.75;;;;;;;3.06;74.95;98093.47;4960761;28;20086;-66
2021/11/25 13:21:17;;;;;;;3.75;2.30;;;;;;;2.87;75.67;98101.13;4972916;28;20023;-66
2021/11/25 13:23:43;;;;;;;5.18;4.43;;;;;;;2.94;75.44;98107.94;4974168;28;20022;-66
2021/11/25 13:26:08;;;;;;;3.17;2.88;;;;;;;2.93;75.40;98106.22;4976948;28;20038;-68
2021/11/25 13:28:36;;;;;;;5.38;4.05;;;;;;;2.66;76.35;98113.00;4976939;28;20031;-69
2021/11/25 13:31:12;;;;;;;4.35;3.28;;;;;;;3.03;76.00;98107.94;4967936;28;20023;-70
2021/11/25 13:34:09;;;;;;;2.42;2.30;;;;;;;2.70;75.36;98094.25;4976781;28;20101;-69
2021/11/25 13:36:57;;;;;;;3.13;2.78;;;;;;;2.48;76.86;98103.56;4976717;28;20023;-69
2021/11/25 13:39:29;;;;;;;3.20;2.90;;;;;;;2.27;77.22;98101.81;4976607;28;20492;-69
2021/11/25 13:41:58;;;;;;;6.95;4.00;;;;;;;2.16;77.42;98100.88;4976773;28;20396;-69
2021/11/25 13:44:29;;;;;;;5.53;2.70;;;;;;;2.18;78.15;98114.53;4976607;28;20026;-69
2021/11/25 13:46:57;;;;;;;3.47;3.17;;;;;;;2.14;78.25;98115.38;4976751;28;20031;-69
2021/11/25 13:49:29;;;;;;;6.10;4.22;;;;;;;1.97;77.75;98116.97;4976478;28;20105;-68
2021/11/25 13:52:04;;;;;;;6.63;5.25;;;;;;;2.06;78.16;98129.78;4976551;28;20114;-69
2021/11/25 13:54:29;;;;;;;5.97;3.83;;;;;;;2.07;77.84;98116.16;4976460;28;20030;-69
2021/11/25 13:56:54;;;;;;;5.00;2.85;;;;;;;2.45;78.49;98113.78;4976319;28;20030;-69
2021/11/25 13:59:24;;;;;;;4.63;2.53;;;;;;;2.50;77.77;98101.00;4975645;28;20089;-69
2021/11/25 14:01:50;;;;;;;4.70;3.90;;;;;;;2.39;77.94;98102.69;4968394;28;20038;-69
2021/11/25 14:04:17;;;;;;;6.78;3.15;;;;;;;2.54;76.81;98103.59;4976235;28;20400;-69
2021/11/25 14:06:43;;;;;;;3.05;2.75;;;;;;;2.54;77.05;98110.41;4976193;28;20396;-68
2021/11/25 14:09:17;;;;;;;3.28;2.83;;;;;;;2.69;77.52;98100.22;4975883;28;20027;-69
2021/11/25 14:11:55;;;;;;;2.30;1.92;;;;;;;2.74;76.28;98092.53;4976225;28;20033;-68
2021/11/25 14:14:29;;;;;;;5.10;2.38;;;;;;;2.71;76.60;98090.84;4976014;28;20041;-68
2021/11/25 14:16:55;;;;;;;2.85;2.65;;;;;;;2.77;76.74;98106.22;4974770;28;20111;-68
2021/11/25 14:19:23;;;;;;;3.28;2.97;;;;;;;2.70;77.64;98101.91;4975857;28;20395;-69
2021/11/25 14:21:53;;;;;;;1.85;1.77;;;;;;;2.75;78.24;98113.00;4975916;28;20026;-70
2021/11/25 14:24:21;;;;;;;2.70;2.25;;;;;;;2.42;77.85;98118.00;4975839;28;20026;-69
2021/11/25 14:32:48;;;;;;;3.63;2.80;;;;;;;2.15;78.91;98113.66;4964286;28;20145;-69
2021/11/25 14:35:40;;;;;;;4.05;3.15;;;;;;;1.82;79.74;98124.56;4974125;28;20039;-68
2021/11/25 14:38:31;;;;;;;3.95;3.42;;;;;;;1.77;80.32;98121.97;4975838;28;20066;-69
2021/11/25 14:41:01;;;;;;;7.05;3.00;;;;;;;1.83;80.06;98126.25;4972653;28;20077;-69
2021/11/25 14:43:27;;;;;;;2.78;2.65;;;;;;;1.71;80.29;98125.34;4975887;28;20027;-66
2021/11/25 14:45:57;;;;;;;3.70;2.70;;;;;;;1.95;81.55;98126.34;4975430;28;20058;-67
2021/11/25 14:48:27;;;;;;;5.25;3.63;;;;;;;2.05;80.44;98128.94;4975632;28;20077;-67
2021/11/25 14:51:04;;;;;;;5.75;3.55;;;;;;;2.25;79.29;98129.03;4975209;28;20019;-66
2021/11/25 14:53:48;;;;;;;4.97;2.42;;;;;;;1.80;79.80;98138.19;4975607;28;20118;-66
2021/11/25 14:56:24;;;;;;;1.77;1.67;;;;;;;1.72;80.28;98139.81;4975379;28;20031;-66
2021/11/25 14:58:54;;;;;;;3.85;3.53;;;;;;;1.65;79.80;98138.06;4975068;28;20077;-66
2021/11/25 15:01:29;;;;;;;5.50;4.93;;;;;;;1.61;79.85;98141.44;4966971;28;20015;-66
2021/11/25 15:04:01;;;;;;;3.53;3.33;;;;;;;1.62;80.18;98132.94;4975600;28;20101;-66
2021/11/25 15:06:33;;;;;;;4.97;4.18;;;;;;;1.59;80.35;98132.91;4975262;28;20026;-66
2021/11/25 15:09:00;;;;;;;5.95;2.65;;;;;;;1.58;79.95;98141.41;4975162;28;20381;-66
2021/11/25 15:11:25;;;;;;;5.20;3.35;;;;;;;1.97;81.06;98151.03;4975154;28;20031;-66
2021/11/25 15:13:51;;;;;;;4.43;3.90;;;;;;;1.93;80.38;98151.00;4975128;28;20037;-67
2021/11/25 15:16:16;;;;;;;4.18;3.88;;;;;;;1.73;79.71;98151.72;4974883;28;20054;-67
2021/11/25 15:18:41;;;;;;;6.18;2.83;;;;;;;1.60;80.33;98155.06;4975044;28;20027;-67
2021/11/25 15:21:07;;;;;;;5.15;4.00;;;;;;;1.59;80.45;98155.88;4974854;28;20374;-67
2021/11/25 15:23:32;;;;;;;7.00;3.17;;;;;;;1.44;79.87;98158.31;4974859;28;20030;-67
2021/11/25 15:25:58;;;;;;;3.85;3.50;;;;;;;1.38;80.43;98155.72;4974899;28;20026;-67
2021/11/25 15:28:24;;;;;;;4.47;4.18;;;;;;;1.32;81.06;98158.22;4974797;28;20034;-67
2021/11/25 15:30:50;;;;;;;8.70;6.38;;;;;;;1.69;80.30;98159.34;4965699;28;20027;-67
2021/11/25 15:33:18;;;;;;;5.55;3.85;;;;;;;1.72;80.12;98165.34;4974738;28;20031;-67
2021/11/25 15:35:46;;;;;;;3.25;2.55;;;;;;;1.84;79.15;98163.72;4975062;28;20033;-67
2021/11/25 15:38:15;;;;;;;5.32;3.42;;;;;;;1.71;79.79;98163.66;4974639;28;20026;-67
2021/11/25 15:40:44;;;;;;;4.15;3.90;;;;;;;1.68;79.40;98172.97;4974643;28;20027;-67
2021/11/25 15:43:11;;;;;;;4.35;2.60;;;;;;;1.77;79.87;98173.91;4974460;28;20038;-67
2021/11/25 15:45:37;;;;;;;3.88;3.60;;;;;;;1.75;80.47;98175.59;4974745;28;20054;-67
2021/11/25 15:48:04;;;;;;;5.72;3.80;;;;;;;1.41;80.30;98174.47;4974532;28;20026;-67
2021/11/25 15:50:32;;;;;;;4.45;3.17;;;;;;;1.76;80.16;98179.84;4989118;28;20392;-67
2021/11/25 15:52:57;;;;;;;7.95;4.80;;;;;;;1.76;79.69;98182.41;4974415;28;20400;-67
2021/11/25 15:55:23;;;;;;;7.05;3.53;;;;;;;2.02;78.25;98180.00;4974246;28;20022;-67
2021/11/25 15:57:49;;;;;;;7.60;4.25;;;;;;;1.67;79.36;98187.44;4974377;28;20030;-67
2021/11/25 16:00:15;;;;;;;7.25;6.00;;;;;;;1.46;79.77;98184.72;4969373;28;20034;-67
2021/11/25 16:02:40;;;;;;;3.47;2.63;;;;;;;1.57;80.22;98180.56;4967887;28;20031;-67
2021/11/25 16:05:05;;;;;;;5.28;4.82;;;;;;;1.44;80.02;98179.59;4973050;28;20114;-66
2021/11/25 16:07:31;;;;;;;3.17;3.00;;;;;;;1.36;80.45;98181.25;4988851;28;20031;-67
2021/11/25 16:09:56;;;;;;;4.85;2.80;;;;;;;1.45;80.84;98180.44;4971940;28;20065;-67
2021/11/25 16:12:22;;;;;;;5.88;3.95;;;;;;;1.45;80.55;98190.66;4960753;28;20023;-67
2021/11/25 16:14:48;;;;;;;3.33;3.03;;;;;;;1.83;81.09;98185.00;4973732;28;20369;-67
2021/11/25 16:17:16;;;;;;;4.32;3.80;;;;;;;1.56;79.84;98188.22;4973617;28;20031;-67
2021/11/25 16:19:43;;;;;;;4.93;4.50;;;;;;;1.53;80.22;98183.91;4973533;28;20520;-67